sensor_id;sensor_type;location;lat;lon;timestamp;pressure;altitude;pressure_sealevel;temperature;humidity
40872;BME280;26591;43.264;26.940;2023-04-07T00:01:43;98717.50;;;6.45;50.70
40872;BME280;26591;43.264;26.940;2023-04-07T00:04:08;98705.69;;;6.49;49.97
40872;BME280;26591;43.264;26.940;2023-04-07T00:06:34;98699.41;;;6.60;50.13
40872;BME280;26591;43.264;26.940;2023-04-07T00:08:59;98704.03;;;6.48;49.93
40872;BME280;26591;43.264;26.940;2023-04-07T00:11:25;98705.63;;;6.13;50.49
40872;BME280;26591;43.264;26.940;2023-04-07T00:13:51;98701.28;;;6.22;50.54
40872;BME280;26591;43.264;26.940;2023-04-07T00:16:16;98694.34;;;6.31;49.84
40872;BME280;26591;43.264;26.940;2023-04-07T00:18:42;98690.59;;;5.95;50.20
40872;BME280;26591;43.264;26.940;2023-04-07T00:21:07;98696.31;;;5.81;50.94
40872;BME280;26591;43.264;26.940;2023-04-07T00:23:33;98699.16;;;6.07;50.08
40872;BME280;26591;43.264;26.940;2023-04-07T00:25:58;98694.63;;;6.28;49.98
40872;BME280;26591;43.264;26.940;2023-04-07T00:28:25;98698.34;;;6.25;50.36
40872;BME280;26591;43.264;26.940;2023-04-07T00:30:50;98701.25;;;6.32;50.11
40872;BME280;26591;43.264;26.940;2023-04-07T00:33:16;98710.88;;;6.13;49.57
40872;BME280;26591;43.264;26.940;2023-04-07T00:35:41;98703.53;;;6.17;49.88
40872;BME280;26591;43.264;26.940;2023-04-07T00:38:07;98706.88;;;6.09;50.08
40872;BME280;26591;43.264;26.940;2023-04-07T00:40:33;98708.81;;;6.07;49.95
40872;BME280;26591;43.264;26.940;2023-04-07T00:42:58;98712.41;;;5.96;49.92
40872;BME280;26591;43.264;26.940;2023-04-07T00:45:24;98715.16;;;6.14;49.29
40872;BME280;26591;43.264;26.940;2023-04-07T00:47:49;98705.78;;;6.39;49.59
40872;BME280;26591;43.264;26.940;2023-04-07T00:50:14;98702.94;;;6.23;49.19
40872;BME280;26591;43.264;26.940;2023-04-07T00:52:40;98707.16;;;6.06;50.13
40872;BME280;26591;43.264;26.940;2023-04-07T00:55:06;98710.97;;;6.21;49.80
40872;BME280;26591;43.264;26.940;2023-04-07T00:57:32;98711.56;;;6.15;49.64
40872;BME280;26591;43.264;26.940;2023-04-07T00:59:57;98707.63;;;6.47;49.22
40872;BME280;26591;43.264;26.940;2023-04-07T01:02:35;98703.06;;;6.21;49.43
40872;BME280;26591;43.264;26.940;2023-04-07T01:10:34;98701.25;;;6.32;49.48
40872;BME280;26591;43.264;26.940;2023-04-07T01:13:05;98706.50;;;6.32;49.68
40872;BME280;26591;43.264;26.940;2023-04-07T01:15:33;98702.75;;;6.34;49.60
40872;BME280;26591;43.264;26.940;2023-04-07T01:18:18;98703.03;;;6.03;50.17
40872;BME280;26591;43.264;26.940;2023-04-07T01:20:48;98710.44;;;6.18;50.11
40872;BME280;26591;43.264;26.940;2023-04-07T01:23:22;98713.50;;;6.41;49.82
40872;BME280;26591;43.264;26.940;2023-04-07T01:26:06;98717.81;;;6.60;49.04
40872;BME280;26591;43.264;26.940;2023-04-07T01:28:53;98705.19;;;6.64;48.92
40872;BME280;26591;43.264;26.940;2023-04-07T01:31:22;98720.19;;;6.53;49.83
40872;BME280;26591;43.264;26.940;2023-04-07T01:33:48;98723.50;;;6.55;49.61
40872;BME280;26591;43.264;26.940;2023-04-07T01:36:30;98723.81;;;6.70;49.19
40872;BME280;26591;43.264;26.940;2023-04-07T01:38:58;98709.34;;;6.66;48.68
40872;BME280;26591;43.264;26.940;2023-04-07T01:41:24;98717.25;;;6.38;48.78
40872;BME280;26591;43.264;26.940;2023-04-07T01:43:52;98713.94;;;6.36;49.06
40872;BME280;26591;43.264;26.940;2023-04-07T01:46:18;98718.31;;;6.64;49.06
40872;BME280;26591;43.264;26.940;2023-04-07T01:48:44;98715.38;;;6.49;49.53
40872;BME280;26591;43.264;26.940;2023-04-07T01:51:12;98724.72;;;6.79;49.28
40872;BME280;26591;43.264;26.940;2023-04-07T01:53:42;98716.63;;;6.91;48.56
40872;BME280;26591;43.264;26.940;2023-04-07T01:56:08;98723.00;;;7.06;48.04
40872;BME280;26591;43.264;26.940;2023-04-07T02:01:42;98722.19;;;6.87;48.51
40872;BME280;26591;43.264;26.940;2023-04-07T02:06:47;98730.69;;;7.17;47.88
40872;BME280;26591;43.264;26.940;2023-04-07T02:09:15;98722.47;;;6.84;48.22
40872;BME280;26591;43.264;26.940;2023-04-07T02:11:43;98724.72;;;6.79;48.80
40872;BME280;26591;43.264;26.940;2023-04-07T02:14:10;98724.81;;;6.87;48.38
40872;BME280;26591;43.264;26.940;2023-04-07T02:16:38;98721.56;;;6.76;48.75
40872;BME280;26591;43.264;26.940;2023-04-07T02:19:04;98726.09;;;6.83;49.37
40872;BME280;26591;43.264;26.940;2023-04-07T02:21:32;98717.91;;;6.86;48.74
40872;BME280;26591;43.264;26.940;2023-04-07T02:24:05;98717.66;;;6.98;48.92
40872;BME280;26591;43.264;26.940;2023-04-07T02:26:35;98723.75;;;7.16;48.61
40872;BME280;26591;43.264;26.940;2023-04-07T02:29:01;98720.91;;;7.10;48.04
40872;BME280;26591;43.264;26.940;2023-04-07T02:31:27;98730.00;;;7.15;48.15
40872;BME280;26591;43.264;26.940;2023-04-07T02:33:53;98732.94;;;6.94;48.07
40872;BME280;26591;43.264;26.940;2023-04-07T02:36:18;98734.97;;;7.18;48.06
40872;BME280;26591;43.264;26.940;2023-04-07T02:38:47;98727.03;;;7.37;48.04
40872;BME280;26591;43.264;26.940;2023-04-07T02:41:12;98732.44;;;7.53;48.22
40872;BME280;26591;43.264;26.940;2023-04-07T02:43:41;98735.94;;;6.99;48.87
40872;BME280;26591;43.264;26.940;2023-04-07T02:46:07;98734.72;;;6.94;48.53
40872;BME280;26591;43.264;26.940;2023-04-07T02:48:34;98738.63;;;6.71;48.37
40872;BME280;26591;43.264;26.940;2023-04-07T02:51:00;98744.03;;;6.52;49.80
40872;BME280;26591;43.264;26.940;2023-04-07T02:53:25;98736.88;;;6.62;49.10
40872;BME280;26591;43.264;26.940;2023-04-07T02:55:51;98738.38;;;6.65;49.60
40872;BME280;26591;43.264;26.940;2023-04-07T02:58:16;98739.75;;;6.87;48.43
40872;BME280;26591;43.264;26.940;2023-04-07T03:00:42;98734.66;;;6.85;48.99
40872;BME280;26591;43.264;26.940;2023-04-07T03:03:07;98735.19;;;6.89;48.82
40872;BME280;26591;43.264;26.940;2023-04-07T03:05:33;98742.84;;;6.36;49.62
40872;BME280;26591;43.264;26.940;2023-04-07T03:07:58;98743.81;;;5.98;50.62
40872;BME280;26591;43.264;26.940;2023-04-07T03:10:24;98738.03;;;6.32;50.22
40872;BME280;26591;43.264;26.940;2023-04-07T03:12:50;98743.78;;;6.45;48.93
40872;BME280;26591;43.264;26.940;2023-04-07T03:15:16;98746.19;;;6.56;48.64
40872;BME280;26591;43.264;26.940;2023-04-07T03:17:41;98745.53;;;6.72;48.39
40872;BME280;26591;43.264;26.940;2023-04-07T03:20:07;98737.06;;;6.79;48.82
40872;BME280;26591;43.264;26.940;2023-04-07T03:22:33;98747.06;;;6.75;48.55
40872;BME280;26591;43.264;26.940;2023-04-07T03:24:58;98752.72;;;6.52;49.13
40872;BME280;26591;43.264;26.940;2023-04-07T03:27:24;98751.19;;;6.96;48.49
40872;BME280;26591;43.264;26.940;2023-04-07T03:29:49;98752.94;;;7.23;48.65
40872;BME280;26591;43.264;26.940;2023-04-07T03:32:17;98757.94;;;7.35;47.82
40872;BME280;26591;43.264;26.940;2023-04-07T03:34:43;98747.47;;;7.43;47.61
40872;BME280;26591;43.264;26.940;2023-04-07T03:37:08;98759.78;;;6.98;48.97
40872;BME280;26591;43.264;26.940;2023-04-07T03:39:34;98757.28;;;7.14;48.21
40872;BME280;26591;43.264;26.940;2023-04-07T03:42:02;98762.78;;;7.21;48.46
40872;BME280;26591;43.264;26.940;2023-04-07T03:44:27;98761.09;;;6.66;49.49
40872;BME280;26591;43.264;26.940;2023-04-07T03:46:53;98766.56;;;6.72;49.74
40872;BME280;26591;43.264;26.940;2023-04-07T03:49:18;98772.25;;;6.96;50.08
40872;BME280;26591;43.264;26.940;2023-04-07T03:51:44;98777.56;;;6.86;49.95
40872;BME280;26591;43.264;26.940;2023-04-07T03:54:43;98780.19;;;6.86;49.37
40872;BME280;26591;43.264;26.940;2023-04-07T03:57:09;98782.25;;;6.92;49.90
40872;BME280;26591;43.264;26.940;2023-04-07T03:59:34;98778.72;;;7.20;48.98
40872;BME280;26591;43.264;26.940;2023-04-07T04:02:02;98780.66;;;6.99;48.73
40872;BME280;26591;43.264;26.940;2023-04-07T04:04:28;98782.84;;;6.58;49.38
40872;BME280;26591;43.264;26.940;2023-04-07T04:06:53;98785.22;;;6.79;49.49
40872;BME280;26591;43.264;26.940;2023-04-07T04:09:19;98788.88;;;7.14;49.14
40872;BME280;26591;43.264;26.940;2023-04-07T04:11:45;98796.69;;;7.24;49.36
40872;BME280;26591;43.264;26.940;2023-04-07T04:14:11;98800.97;;;7.43;49.17
40872;BME280;26591;43.264;26.940;2023-04-07T04:16:36;98801.72;;;7.54;48.83
40872;BME280;26591;43.264;26.940;2023-04-07T04:19:04;98801.25;;;7.58;49.18
40872;BME280;26591;43.264;26.940;2023-04-07T04:21:30;98804.56;;;7.60;48.65
40872;BME280;26591;43.264;26.940;2023-04-07T04:23:55;98802.94;;;6.77;49.67
40872;BME280;26591;43.264;26.940;2023-04-07T04:26:21;98807.88;;;7.08;49.78
40872;BME280;26591;43.264;26.940;2023-04-07T04:28:50;98807.25;;;6.78;50.29
40872;BME280;26591;43.264;26.940;2023-04-07T04:31:16;98807.69;;;7.20;49.97
40872;BME280;26591;43.264;26.940;2023-04-07T04:33:41;98812.25;;;7.36;49.69
40872;BME280;26591;43.264;26.940;2023-04-07T04:36:06;98810.97;;;7.22;49.56
40872;BME280;26591;43.264;26.940;2023-04-07T04:39:03;98819.09;;;7.10;49.79
40872;BME280;26591;43.264;26.940;2023-04-07T04:41:28;98819.56;;;6.78;51.05
40872;BME280;26591;43.264;26.940;2023-04-07T04:43:54;98819.38;;;6.61;51.06
40872;BME280;26591;43.264;26.940;2023-04-07T04:46:20;98818.44;;;6.52;52.27
40872;BME280;26591;43.264;26.940;2023-04-07T04:48:45;98823.03;;;6.78;51.84
40872;BME280;26591;43.264;26.940;2023-04-07T04:51:14;98829.31;;;6.67;51.96
40872;BME280;26591;43.264;26.940;2023-04-07T04:53:39;98832.53;;;6.61;52.10
40872;BME280;26591;43.264;26.940;2023-04-07T04:56:06;98829.13;;;6.51;52.66
40872;BME280;26591;43.264;26.940;2023-04-07T04:58:31;98833.66;;;6.59;52.04
40872;BME280;26591;43.264;26.940;2023-04-07T05:00:57;98838.63;;;6.62;51.98
40872;BME280;26591;43.264;26.940;2023-04-07T05:03:23;98838.44;;;6.73;51.92
40872;BME280;26591;43.264;26.940;2023-04-07T05:05:52;98840.34;;;6.81;52.34
40872;BME280;26591;43.264;26.940;2023-04-07T05:08:17;98844.53;;;6.92;52.28
40872;BME280;26591;43.264;26.940;2023-04-07T05:10:43;98842.09;;;7.08;51.02
40872;BME280;26591;43.264;26.940;2023-04-07T05:13:08;98850.22;;;7.15;50.76
40872;BME280;26591;43.264;26.940;2023-04-07T05:15:34;98848.31;;;6.89;49.89
40872;BME280;26591;43.264;26.940;2023-04-07T05:17:59;98840.94;;;6.93;50.22
40872;BME280;26591;43.264;26.940;2023-04-07T05:20:25;98854.91;;;7.21;50.33
40872;BME280;26591;43.264;26.940;2023-04-07T05:22:50;98844.03;;;7.06;49.82
40872;BME280;26591;43.264;26.940;2023-04-07T05:25:16;98851.94;;;7.06;50.53
40872;BME280;26591;43.264;26.940;2023-04-07T05:27:43;98855.53;;;7.33;50.10
40872;BME280;26591;43.264;26.940;2023-04-07T05:30:09;98857.69;;;7.20;50.47
40872;BME280;26591;43.264;26.940;2023-04-07T05:32:35;98859.66;;;7.17;50.84
40872;BME280;26591;43.264;26.940;2023-04-07T05:35:01;98856.09;;;7.27;50.24
40872;BME280;26591;43.264;26.940;2023-04-07T05:37:26;98856.84;;;7.19;50.78
40872;BME280;26591;43.264;26.940;2023-04-07T05:39:51;98869.22;;;7.37;50.94
40872;BME280;26591;43.264;26.940;2023-04-07T05:42:17;98865.50;;;7.11;51.65
40872;BME280;26591;43.264;26.940;2023-04-07T05:44:42;98859.50;;;7.37;50.50
40872;BME280;26591;43.264;26.940;2023-04-07T05:47:08;98861.59;;;7.33;50.94
40872;BME280;26591;43.264;26.940;2023-04-07T05:49:34;98868.75;;;7.59;50.07
40872;BME280;26591;43.264;26.940;2023-04-07T05:52:00;98865.53;;;7.47;50.52
40872;BME280;26591;43.264;26.940;2023-04-07T05:54:27;98860.16;;;7.57;49.67
40872;BME280;26591;43.264;26.940;2023-04-07T05:56:52;98862.03;;;7.65;49.92
40872;BME280;26591;43.264;26.940;2023-04-07T05:59:18;98870.47;;;7.51;49.38
40872;BME280;26591;43.264;26.940;2023-04-07T06:01:43;98871.69;;;7.74;49.49
40872;BME280;26591;43.264;26.940;2023-04-07T06:04:09;98870.41;;;7.78;50.05
40872;BME280;26591;43.264;26.940;2023-04-07T06:06:35;98876.53;;;7.87;48.98
40872;BME280;26591;43.264;26.940;2023-04-07T06:09:00;98879.44;;;7.94;49.53
40872;BME280;26591;43.264;26.940;2023-04-07T06:11:26;98885.88;;;8.00;48.76
40872;BME280;26591;43.264;26.940;2023-04-07T06:13:52;98878.00;;;7.82;48.83
40872;BME280;26591;43.264;26.940;2023-04-07T06:16:17;98882.84;;;8.13;49.08
40872;BME280;26591;43.264;26.940;2023-04-07T06:18:48;98889.00;;;7.59;49.91
40872;BME280;26591;43.264;26.940;2023-04-07T06:21:14;98880.06;;;8.14;49.79
40872;BME280;26591;43.264;26.940;2023-04-07T06:23:39;98880.31;;;8.29;48.27
40872;BME280;26591;43.264;26.940;2023-04-07T06:26:06;98882.47;;;8.52;47.35
40872;BME280;26591;43.264;26.940;2023-04-07T06:28:34;98892.75;;;8.63;47.76
40872;BME280;26591;43.264;26.940;2023-04-07T06:31:03;98890.69;;;8.83;47.51
40872;BME280;26591;43.264;26.940;2023-04-07T06:33:28;98892.88;;;8.35;48.84
40872;BME280;26591;43.264;26.940;2023-04-07T06:35:54;98901.56;;;8.28;48.31
40872;BME280;26591;43.264;26.940;2023-04-07T06:38:21;98895.69;;;8.60;48.69
40872;BME280;26591;43.264;26.940;2023-04-07T06:40:46;98898.91;;;8.80;47.42
40872;BME280;26591;43.264;26.940;2023-04-07T06:43:14;98907.50;;;9.25;46.93
40872;BME280;26591;43.264;26.940;2023-04-07T06:45:40;98909.19;;;9.35;46.11
40872;BME280;26591;43.264;26.940;2023-04-07T06:48:05;98897.28;;;9.30;44.25
40872;BME280;26591;43.264;26.940;2023-04-07T06:50:31;98904.69;;;9.27;41.99
40872;BME280;26591;43.264;26.940;2023-04-07T06:52:56;98905.72;;;9.51;41.46
40872;BME280;26591;43.264;26.940;2023-04-07T06:55:22;98905.72;;;9.42;41.74
40872;BME280;26591;43.264;26.940;2023-04-07T06:57:47;98908.19;;;9.44;41.44
40872;BME280;26591;43.264;26.940;2023-04-07T07:00:16;98906.53;;;9.35;41.30
40872;BME280;26591;43.264;26.940;2023-04-07T07:02:42;98904.88;;;9.42;41.03
40872;BME280;26591;43.264;26.940;2023-04-07T07:05:07;98913.97;;;9.31;40.77
40872;BME280;26591;43.264;26.940;2023-04-07T07:07:33;98911.03;;;8.99;40.90
40872;BME280;26591;43.264;26.940;2023-04-07T07:09:58;98918.13;;;9.50;41.71
40872;BME280;26591;43.264;26.940;2023-04-07T07:12:24;98907.59;;;9.67;40.52
40872;BME280;26591;43.264;26.940;2023-04-07T07:14:51;98914.19;;;9.87;39.78
40872;BME280;26591;43.264;26.940;2023-04-07T07:17:17;98914.69;;;10.07;39.14
40872;BME280;26591;43.264;26.940;2023-04-07T07:19:42;98922.13;;;10.04;39.96
40872;BME280;26591;43.264;26.940;2023-04-07T07:22:10;98921.31;;;10.12;39.04
40872;BME280;26591;43.264;26.940;2023-04-07T07:24:36;98928.03;;;9.56;39.52
40872;BME280;26591;43.264;26.940;2023-04-07T07:27:01;98921.81;;;10.07;39.46
40872;BME280;26591;43.264;26.940;2023-04-07T07:29:27;98930.72;;;10.31;38.59
40872;BME280;26591;43.264;26.940;2023-04-07T07:31:53;98929.06;;;9.80;39.91
40872;BME280;26591;43.264;26.940;2023-04-07T07:34:18;98933.69;;;10.19;39.73
40872;BME280;26591;43.264;26.940;2023-04-07T07:36:43;98930.72;;;10.31;39.34
40872;BME280;26591;43.264;26.940;2023-04-07T07:39:09;98928.88;;;10.64;38.68
40872;BME280;26591;43.264;26.940;2023-04-07T07:41:35;98932.97;;;11.23;38.19
40872;BME280;26591;43.264;26.940;2023-04-07T07:44:00;98931.13;;;10.92;37.42
40872;BME280;26591;43.264;26.940;2023-04-07T07:46:26;98933.66;;;11.17;37.45
40872;BME280;26591;43.264;26.940;2023-04-07T07:48:52;98932.59;;;11.35;37.52
40872;BME280;26591;43.264;26.940;2023-04-07T07:51:17;98933.88;;;11.70;36.62
40872;BME280;26591;43.264;26.940;2023-04-07T07:53:43;98943.34;;;12.34;36.85
40872;BME280;26591;43.264;26.940;2023-04-07T07:56:10;98943.47;;;12.41;35.45
40872;BME280;26591;43.264;26.940;2023-04-07T07:58:35;98938.25;;;12.63;35.08
40872;BME280;26591;43.264;26.940;2023-04-07T08:01:01;98946.22;;;12.93;34.29
40872;BME280;26591;43.264;26.940;2023-04-07T08:03:26;98942.91;;;13.36;34.71
40872;BME280;26591;43.264;26.940;2023-04-07T08:05:52;98942.09;;;13.72;34.65
40872;BME280;26591;43.264;26.940;2023-04-07T08:08:17;98929.03;;;13.99;34.16
40872;BME280;26591;43.264;26.940;2023-04-07T08:10:43;98931.88;;;14.19;33.37
40872;BME280;26591;43.264;26.940;2023-04-07T08:13:09;98940.19;;;14.09;34.31
40872;BME280;26591;43.264;26.940;2023-04-07T08:15:34;98930.63;;;13.93;33.16
40872;BME280;26591;43.264;26.940;2023-04-07T08:18:00;98936.25;;;14.05;33.15
40872;BME280;26591;43.264;26.940;2023-04-07T08:20:29;98934.06;;;14.37;33.15
40872;BME280;26591;43.264;26.940;2023-04-07T08:22:54;98934.03;;;14.09;33.49
40872;BME280;26591;43.264;26.940;2023-04-07T08:25:20;98936.63;;;14.52;34.23
40872;BME280;26591;43.264;26.940;2023-04-07T08:27:47;98937.28;;;14.83;33.18
40872;BME280;26591;43.264;26.940;2023-04-07T08:30:13;98944.78;;;14.72;32.41
40872;BME280;26591;43.264;26.940;2023-04-07T08:32:40;98940.75;;;14.83;33.16
40872;BME280;26591;43.264;26.940;2023-04-07T08:35:06;98937.13;;;14.34;33.37
40872;BME280;26591;43.264;26.940;2023-04-07T08:37:33;98942.53;;;14.69;33.55
40872;BME280;26591;43.264;26.940;2023-04-07T08:39:59;98936.78;;;15.07;33.85
40872;BME280;26591;43.264;26.940;2023-04-07T08:42:31;98941.44;;;14.35;34.39
40872;BME280;26591;43.264;26.940;2023-04-07T08:45:03;98950.06;;;13.50;35.98
40872;BME280;26591;43.264;26.940;2023-04-07T08:47:30;98940.06;;;13.52;35.58
40872;BME280;26591;43.264;26.940;2023-04-07T08:50:00;98940.28;;;13.06;36.47
40872;BME280;26591;43.264;26.940;2023-04-07T08:52:32;98943.75;;;12.76;36.69
40872;BME280;26591;43.264;26.940;2023-04-07T08:54:59;98947.50;;;13.12;36.28
40872;BME280;26591;43.264;26.940;2023-04-07T08:57:32;98952.53;;;12.47;36.31
40872;BME280;26591;43.264;26.940;2023-04-07T08:59:59;98949.69;;;11.24;37.70
40872;BME280;26591;43.264;26.940;2023-04-07T09:02:38;98947.03;;;11.32;37.74
40872;BME280;26591;43.264;26.940;2023-04-07T09:05:05;98943.84;;;10.97;39.09
40872;BME280;26591;43.264;26.940;2023-04-07T09:07:33;98949.56;;;10.61;39.37
40872;BME280;26591;43.264;26.940;2023-04-07T09:09:58;98946.97;;;11.01;38.92
40872;BME280;26591;43.264;26.940;2023-04-07T09:12:26;98950.31;;;10.86;39.15
40872;BME280;26591;43.264;26.940;2023-04-07T09:14:52;98957.19;;;10.14;39.67
40872;BME280;26591;43.264;26.940;2023-04-07T09:17:46;98947.41;;;10.23;40.22
40872;BME280;26591;43.264;26.940;2023-04-07T09:20:12;98950.41;;;10.45;39.81
40872;BME280;26591;43.264;26.940;2023-04-07T09:22:43;98946.44;;;10.41;39.49
40872;BME280;26591;43.264;26.940;2023-04-07T09:25:13;98945.78;;;10.30;40.13
40872;BME280;26591;43.264;26.940;2023-04-07T09:27:39;98950.59;;;10.99;39.20
40872;BME280;26591;43.264;26.940;2023-04-07T09:30:11;98954.44;;;10.89;39.72
40872;BME280;26591;43.264;26.940;2023-04-07T09:32:37;98955.59;;;10.94;40.19
40872;BME280;26591;43.264;26.940;2023-04-07T09:35:06;98952.41;;;11.07;39.88
40872;BME280;26591;43.264;26.940;2023-04-07T09:37:32;98953.72;;;11.11;39.89
40872;BME280;26591;43.264;26.940;2023-04-07T09:39:57;98949.16;;;11.28;39.35
40872;BME280;26591;43.264;26.940;2023-04-07T09:42:23;98951.59;;;11.47;38.97
40872;BME280;26591;43.264;26.940;2023-04-07T09:44:50;98951.47;;;11.63;38.51
40872;BME280;26591;43.264;26.940;2023-04-07T09:47:16;98956.09;;;11.38;39.16
40872;BME280;26591;43.264;26.940;2023-04-07T09:49:52;98952.78;;;11.90;37.73
40872;BME280;26591;43.264;26.940;2023-04-07T09:52:21;98951.53;;;11.78;38.21
40872;BME280;26591;43.264;26.940;2023-04-07T09:55:12;98956.94;;;12.55;37.14
40872;BME280;26591;43.264;26.940;2023-04-07T09:57:39;98958.94;;;12.67;36.84
40872;BME280;26591;43.264;26.940;2023-04-07T10:00:08;98953.81;;;12.13;37.28
40872;BME280;26591;43.264;26.940;2023-04-07T10:02:36;98960.22;;;12.18;38.30
40872;BME280;26591;43.264;26.940;2023-04-07T10:05:02;98958.19;;;12.05;37.97
40872;BME280;26591;43.264;26.940;2023-04-07T10:07:28;98962.91;;;11.64;37.85
40872;BME280;26591;43.264;26.940;2023-04-07T10:09:54;98968.50;;;11.92;37.21
40872;BME280;26591;43.264;26.940;2023-04-07T10:12:19;98968.06;;;12.35;37.41
40872;BME280;26591;43.264;26.940;2023-04-07T10:14:45;98966.84;;;12.76;36.02
40872;BME280;26591;43.264;26.940;2023-04-07T10:17:14;98956.22;;;12.23;37.06
40872;BME280;26591;43.264;26.940;2023-04-07T10:19:44;98962.28;;;12.31;37.76
40872;BME280;26591;43.264;26.940;2023-04-07T10:22:11;98958.66;;;11.78;38.49
40872;BME280;26591;43.264;26.940;2023-04-07T10:27:11;98952.72;;;12.22;37.00
40872;BME280;26591;43.264;26.940;2023-04-07T10:29:41;98949.25;;;12.75;37.04
40872;BME280;26591;43.264;26.940;2023-04-07T10:32:08;98948.91;;;13.08;36.68
40872;BME280;26591;43.264;26.940;2023-04-07T10:37:16;98952.53;;;12.62;36.75
40872;BME280;26591;43.264;26.940;2023-04-07T10:39:44;98946.66;;;12.51;37.42
40872;BME280;26591;43.264;26.940;2023-04-07T10:45:07;98940.59;;;12.28;37.17
40872;BME280;26591;43.264;26.940;2023-04-07T10:47:34;98949.03;;;12.31;38.80
40872;BME280;26591;43.264;26.940;2023-04-07T10:52:42;98947.38;;;12.45;37.36
40872;BME280;26591;43.264;26.940;2023-04-07T11:03:21;98944.59;;;13.07;36.75
40872;BME280;26591;43.264;26.940;2023-04-07T11:05:47;98939.63;;;13.04;36.33
40872;BME280;26591;43.264;26.940;2023-04-07T11:08:12;98947.59;;;13.04;36.29
40872;BME280;26591;43.264;26.940;2023-04-07T11:10:38;98949.38;;;12.43;37.28
40872;BME280;26591;43.264;26.940;2023-04-07T11:13:06;98936.31;;;12.42;37.74
40872;BME280;26591;43.264;26.940;2023-04-07T11:15:33;98942.25;;;12.44;37.69
40872;BME280;26591;43.264;26.940;2023-04-07T11:18:16;98943.38;;;12.49;37.83
40872;BME280;26591;43.264;26.940;2023-04-07T11:23:11;98939.66;;;12.35;38.13
40872;BME280;26591;43.264;26.940;2023-04-07T11:25:37;98940.97;;;12.40;37.38
40872;BME280;26591;43.264;26.940;2023-04-07T11:28:03;98950.97;;;12.52;37.83
40872;BME280;26591;43.264;26.940;2023-04-07T11:30:29;98946.00;;;12.34;37.74
40872;BME280;26591;43.264;26.940;2023-04-07T11:32:57;98944.44;;;12.02;38.09
40872;BME280;26591;43.264;26.940;2023-04-07T11:35:24;98954.78;;;11.88;37.72
40872;BME280;26591;43.264;26.940;2023-04-07T11:37:56;98950.84;;;12.08;37.74
40872;BME280;26591;43.264;26.940;2023-04-07T11:40:35;98943.63;;;12.40;38.06
40872;BME280;26591;43.264;26.940;2023-04-07T11:43:24;98939.91;;;12.64;37.26
40872;BME280;26591;43.264;26.940;2023-04-07T11:48:30;98935.81;;;12.91;36.26
40872;BME280;26591;43.264;26.940;2023-04-07T11:50:56;98936.19;;;13.55;36.58
40872;BME280;26591;43.264;26.940;2023-04-07T11:53:33;98936.78;;;13.05;36.64
40872;BME280;26591;43.264;26.940;2023-04-07T11:56:09;98946.41;;;12.76;37.13
40872;BME280;26591;43.264;26.940;2023-04-07T11:58:36;98939.81;;;12.42;38.46
40872;BME280;26591;43.264;26.940;2023-04-07T12:01:04;98931.59;;;12.97;36.89
40872;BME280;26591;43.264;26.940;2023-04-07T12:03:34;98940.41;;;13.34;36.00
40872;BME280;26591;43.264;26.940;2023-04-07T12:06:01;98941.06;;;13.73;35.09
40872;BME280;26591;43.264;26.940;2023-04-07T12:08:42;98929.94;;;13.84;35.53
40872;BME280;26591;43.264;26.940;2023-04-07T12:11:09;98943.47;;;13.68;36.05
40872;BME280;26591;43.264;26.940;2023-04-07T12:13:35;98934.31;;;13.04;36.13
40872;BME280;26591;43.264;26.940;2023-04-07T12:16:02;98935.88;;;13.13;36.38
40872;BME280;26591;43.264;26.940;2023-04-07T12:18:28;98937.19;;;13.39;36.57
40872;BME280;26591;43.264;26.940;2023-04-07T12:20:54;98938.13;;;13.46;35.87
40872;BME280;26591;43.264;26.940;2023-04-07T12:23:21;98939.53;;;13.12;36.51
40872;BME280;26591;43.264;26.940;2023-04-07T12:25:46;98929.75;;;12.97;37.43
40872;BME280;26591;43.264;26.940;2023-04-07T12:28:12;98928.19;;;12.88;37.51
40872;BME280;26591;43.264;26.940;2023-04-07T12:30:40;98937.41;;;13.74;37.30
40872;BME280;26591;43.264;26.940;2023-04-07T12:33:08;98925.84;;;14.32;35.18
40872;BME280;26591;43.264;26.940;2023-04-07T12:35:34;98930.75;;;14.07;36.39
40872;BME280;26591;43.264;26.940;2023-04-07T12:37:59;98933.59;;;14.05;36.40
40872;BME280;26591;43.264;26.940;2023-04-07T12:40:25;98937.06;;;13.40;36.84
40872;BME280;26591;43.264;26.940;2023-04-07T12:42:51;98932.97;;;14.03;35.99
40872;BME280;26591;43.264;26.940;2023-04-07T12:45:17;98931.88;;;13.39;36.82
40872;BME280;26591;43.264;26.940;2023-04-07T12:48:00;98931.38;;;13.65;37.22
40872;BME280;26591;43.264;26.940;2023-04-07T12:50:26;98937.91;;;13.63;37.11
40872;BME280;26591;43.264;26.940;2023-04-07T12:52:53;98929.03;;;13.99;37.01
40872;BME280;26591;43.264;26.940;2023-04-07T12:55:19;98924.69;;;13.69;37.09
40872;BME280;26591;43.264;26.940;2023-04-07T12:57:45;98933.47;;;13.48;36.94
40872;BME280;26591;43.264;26.940;2023-04-07T13:00:12;98935.09;;;13.49;37.66
40872;BME280;26591;43.264;26.940;2023-04-07T13:02:37;98928.38;;;13.02;39.01
40872;BME280;26591;43.264;26.940;2023-04-07T13:05:03;98931.84;;;13.17;38.76
40872;BME280;26591;43.264;26.940;2023-04-07T13:07:29;98924.03;;;13.31;38.57
40872;BME280;26591;43.264;26.940;2023-04-07T13:09:54;98930.94;;;12.65;39.74
40872;BME280;26591;43.264;26.940;2023-04-07T13:12:22;98930.59;;;12.68;39.30
40872;BME280;26591;43.264;26.940;2023-04-07T13:14:47;98940.75;;;12.64;39.97
40872;BME280;26591;43.264;26.940;2023-04-07T13:17:13;98934.13;;;12.07;41.61
40872;BME280;26591;43.264;26.940;2023-04-07T13:19:38;98932.22;;;12.16;41.38
40872;BME280;26591;43.264;26.940;2023-04-07T13:22:04;98927.22;;;11.74;42.12
40872;BME280;26591;43.264;26.940;2023-04-07T13:24:30;98931.50;;;12.22;41.78
40872;BME280;26591;43.264;26.940;2023-04-07T13:26:56;98933.25;;;12.30;41.72
40872;BME280;26591;43.264;26.940;2023-04-07T13:29:22;98931.66;;;12.05;41.40
40872;BME280;26591;43.264;26.940;2023-04-07T13:31:48;98937.88;;;11.35;42.43